Time;durP1;ratioP1;P1;durP2;ratioP2;P2;SDS_P1;SDS_P2;PMS_P1;PMS_P2;Temp;Humidity;BMP_temperature;BMP_pressure;BME280_temperature;BME280_humidity;BME280_pressure;Samples;Min_cycle;Max_cycle;Signal;HPM_P1;HPM_P2
2022/02/11 00:02:15;;;;;;;338.73;200.88;;;77.70;2227.20;;;;;;4897342;29;20024;-80
2022/02/11 00:07:16;;;;;;;458.25;271.15;;;77.70;2227.20;;;;;;4897779;29;20198;-80
2022/02/11 00:09:41;;;;;;;402.60;235.68;;;77.60;2227.20;;;;;;4897068;29;20100;-79
2022/02/11 00:12:08;;;;;;;347.92;208.98;;;77.60;2227.20;;;;;;4896750;29;20028;-81
2022/02/11 00:14:42;;;;;;;309.17;186.07;;;77.60;2227.20;;;;;;4911219;29;20036;-81
2022/02/11 00:17:08;;;;;;;206.45;124.75;;;77.60;2227.20;;;;;;4896168;29;20036;-80
2022/02/11 00:19:34;;;;;;;204.68;115.15;;;77.50;2227.20;;;;;;4912162;29;20036;-79
2022/02/11 00:22:00;;;;;;;133.68;74.40;;;77.60;2227.20;;;;;;4896209;29;20029;-79
2022/02/11 00:24:26;;;;;;;126.10;72.32;;;77.30;2227.20;;;;;;4896174;29;20072;-81
2022/02/11 00:27:19;;;;;;;137.70;79.38;;;77.30;2227.20;;;;;;4896629;29;20437;-83
2022/02/11 00:32:27;;;;;;;119.45;68.00;;;77.20;2227.20;;;;;;4897414;29;20494;-80
2022/02/11 00:35:01;;;;;;;97.38;57.95;;;77.30;2227.20;;;;;;4897740;29;20028;-79
2022/02/11 00:37:28;;;;;;;120.60;70.78;;;77.30;2227.20;;;;;;4897449;29;20024;-76
2022/02/11 00:40:22;;;;;;;102.10;55.78;;;77.00;2227.20;;;;;;4897672;29;20425;-79
2022/02/11 01:04:11;;;;;;;207.05;110.72;;;77.00;2227.20;;;;;;4883579;29;20055;-77
2022/02/11 01:06:37;;;;;;;212.07;112.95;;;77.00;2227.20;;;;;;4880410;29;20029;-79
2022/02/11 01:09:03;;;;;;;206.02;115.40;;;77.00;2227.20;;;;;;4897171;29;20076;-80
2022/02/11 01:13:55;;;;;;;171.05;100.28;;;77.20;2227.20;;;;;;4898112;29;20051;-81
2022/02/11 01:16:28;;;;;;;106.13;61.80;;;77.20;2227.20;;;;;;4897216;29;20084;-79
2022/02/11 01:19:06;;;;;;;91.85;55.00;;;77.00;2227.20;;;;;;4897945;29;20085;-78
2022/02/11 01:21:41;;;;;;;90.53;53.13;;;77.00;2227.20;;;;;;4897170;29;20036;-78
2022/02/11 01:24:32;;;;;;;96.03;59.63;;;77.00;2227.20;;;;;;4897720;29;20028;-81
2022/02/11 02:37:43;;;;;;;81.18;48.45;;;52.10;2227.20;;;;;;4880441;29;20045;-80
2022/02/11 02:56:51;;;;;;;57.47;33.60;;;51.70;2227.20;;;;;;4899963;29;20151;-83
2022/02/11 02:59:55;;;;;;;59.50;34.90;;;51.70;2227.20;;;;;;4899297;29;20084;-84
2022/02/11 03:34:55;;;;;;;107.22;59.03;;;51.70;2227.20;;;;;;4899496;29;20132;-81
2022/02/11 03:51:33;;;;;;;95.03;51.55;;;51.20;2227.20;;;;;;4898890;29;20079;-83
2022/02/11 04:08:21;;;;;;;81.47;46.95;;;51.30;2227.20;;;;;;4899125;29;20040;-83
2022/02/11 04:56:40;;;;;;;148.93;82.78;;;26.40;2201.60;;;;;;4898578;29;20484;-82
2022/02/11 05:01:50;;;;;;;115.03;72.93;;;26.40;2201.60;;;;;;4902219;29;20127;-82
2022/02/11 05:04:17;;;;;;;96.18;59.50;;;26.50;2201.60;;;;;;4902387;29;20480;-80
2022/02/11 05:06:43;;;;;;;173.75;84.65;;;26.30;2201.60;;;;;;4901304;29;20056;-82
2022/02/11 05:09:09;;;;;;;237.35;105.97;;;26.10;2201.60;;;;;;4900773;29;20063;-85
2022/02/11 05:11:34;;;;;;;269.70;116.40;;;25.90;2201.60;;;;;;4916689;29;20035;-82
2022/02/11 05:14:00;;;;;;;200.00;96.10;;;25.90;2201.60;;;;;;4900910;29;20029;-84
2022/02/11 05:16:26;;;;;;;146.25;75.13;;;25.90;2201.60;;;;;;4900700;29;20119;-82
2022/02/11 05:18:52;;;;;;;237.85;122.82;;;25.70;2201.60;;;;;;4900954;29;20450;-83
2022/02/11 05:21:18;;;;;;;166.95;90.63;;;25.60;2201.60;;;;;;4901070;29;20056;-81
2022/02/11 05:23:44;;;;;;;154.05;85.90;;;25.80;2201.60;;;;;;4900580;29;20059;-83
2022/02/11 05:26:09;;;;;;;135.77;80.32;;;25.80;2201.60;;;;;;4900791;29;20039;-83
2022/02/11 05:28:35;;;;;;;104.78;59.80;;;25.80;2201.60;;;;;;4916523;29;20389;-85
2022/02/11 05:31:01;;;;;;;97.88;58.63;;;25.90;2201.60;;;;;;4900509;29;20029;-82
2022/02/11 05:33:29;;;;;;;115.05;68.75;;;25.80;2201.60;;;;;;4900597;29;20123;-82
2022/02/11 05:35:55;;;;;;;127.85;75.60;;;25.90;2201.60;;;;;;4916114;29;20519;-82
2022/02/11 05:38:21;;;;;;;153.10;87.00;;;26.00;2201.60;;;;;;4900643;29;20029;-84
2022/02/11 05:40:46;;;;;;;186.50;102.82;;;26.10;2201.60;;;;;;4900256;29;20036;-83
2022/02/11 05:43:13;;;;;;;200.32;113.35;;;26.10;2201.60;;;;;;4900548;29;20373;-80
2022/02/11 05:45:38;;;;;;;199.30;115.03;;;26.10;2201.60;;;;;;4900433;29;20036;-81
2022/02/11 05:48:05;;;;;;;216.70;131.07;;;26.10;2201.60;;;;;;4900410;29;20488;-82
2022/02/11 05:50:31;;;;;;;172.32;99.55;;;26.00;2201.60;;;;;;4900221;29;20425;-81
2022/02/11 05:52:58;;;;;;;162.43;96.03;;;26.00;2201.60;;;;;;4900607;29;20035;-82
2022/02/11 05:55:24;;;;;;;157.75;92.82;;;26.20;2201.60;;;;;;4900205;29;20100;-83
2022/02/11 05:57:50;;;;;;;230.85;117.68;;;26.20;2201.60;;;;;;4899525;29;20052;-84
2022/02/11 06:00:16;;;;;;;227.50;131.13;;;26.10;2201.60;;;;;;4900178;29;20120;-79
2022/02/11 06:02:42;;;;;;;196.85;115.97;;;26.00;2201.60;;;;;;4900062;29;20472;-81
2022/02/11 06:05:08;;;;;;;138.13;81.68;;;26.00;2201.60;;;;;;4899764;29;20043;-81
2022/02/11 06:07:34;;;;;;;112.97;72.85;;;26.00;2201.60;;;;;;4900224;29;20476;-83
2022/02/11 06:10:00;;;;;;;113.03;70.18;;;25.90;2201.60;;;;;;4899711;29;20036;-81
2022/02/11 06:12:27;;;;;;;117.68;74.13;;;25.90;2201.60;;;;;;4899669;29;20060;-84
2022/02/11 06:14:53;;;;;;;106.30;70.82;;;25.80;2201.60;;;;;;4899851;29;20404;-82
2022/02/11 06:17:23;;;;;;;130.18;75.32;;;25.90;2201.60;;;;;;4899936;29;20119;-83
2022/02/11 06:19:49;;;;;;;135.13;80.10;;;25.90;2201.60;;;;;;4899591;29;20033;-83
2022/02/11 06:22:16;;;;;;;143.90;86.45;;;25.90;2201.60;;;;;;4899703;29;20024;-83
2022/02/11 06:24:42;;;;;;;204.88;109.78;;;26.00;2201.60;;;;;;4899845;29;20033;-82
2022/02/11 06:27:07;;;;;;;220.32;115.35;;;25.90;2201.60;;;;;;4899561;29;20432;-82
2022/02/11 06:29:35;;;;;;;261.38;135.90;;;25.90;2201.60;;;;;;4899693;29;20036;-82
2022/02/11 06:32:04;;;;;;;373.05;182.23;;;26.10;2201.60;;;;;;4899352;29;20370;-82
2022/02/11 06:34:30;;;;;;;304.02;155.95;;;26.10;2201.60;;;;;;4899505;29;20044;-81
2022/02/11 06:36:56;;;;;;;185.45;103.75;;;26.10;2201.60;;;;;;4899582;29;20400;-81
2022/02/11 06:39:24;;;;;;;197.98;108.88;;;26.20;2201.60;;;;;;4899256;29;20025;-83
2022/02/11 06:41:51;;;;;;;345.45;162.18;;;26.30;2201.60;;;;;;4899485;29;20120;-82
2022/02/11 06:44:17;;;;;;;335.30;161.32;;;26.40;2201.60;;;;;;4899595;29;20032;-85
2022/02/11 06:46:42;;;;;;;229.60;115.82;;;26.50;2201.60;;;;;;4899087;29;20124;-83
2022/02/11 06:49:08;;;;;;;208.27;110.78;;;51.30;2227.20;;;;;;4899557;29;20033;-83
2022/02/11 06:51:34;;;;;;;158.93;87.88;;;51.50;2227.20;;;;;;4899289;29;20029;-84
2022/02/11 06:54:00;;;;;;;140.68;78.57;;;51.60;2227.20;;;;;;4899137;29;20092;-84
2022/02/11 06:56:26;;;;;;;98.10;60.97;;;51.80;2227.20;;;;;;4898898;29;20052;-83
2022/02/11 06:58:53;;;;;;;96.25;63.13;;;51.70;2227.20;;;;;;4900811;29;20056;-85
2022/02/11 07:01:23;;;;;;;358.05;205.65;;;51.80;2227.20;;;;;;4898699;29;20066;-84
2022/02/11 07:03:49;;;;;;;255.65;151.30;;;51.70;2227.20;;;;;;4898967;29;20028;-85
2022/02/11 07:06:14;;;;;;;136.15;87.05;;;51.80;2227.20;;;;;;4900363;29;20033;-83
2022/02/11 07:08:40;;;;;;;400.08;213.73;;;51.90;2227.20;;;;;;4898780;29;20035;-84
2022/02/11 07:11:06;;;;;;;520.60;293.05;;;51.90;2227.20;;;;;;4899013;29;20119;-84
2022/02/11 07:13:32;;;;;;;423.45;225.30;;;51.80;2227.20;;;;;;4898955;29;20025;-84
2022/02/11 07:15:58;;;;;;;377.88;211.02;;;51.80;2227.20;;;;;;4898500;29;20068;-83
2022/02/11 07:18:24;;;;;;;220.68;125.70;;;51.90;2227.20;;;;;;4898871;29;20464;-80
2022/02/11 07:20:51;;;;;;;130.55;85.40;;;52.10;2227.20;;;;;;4898515;29;20032;-83
2022/02/11 07:23:17;;;;;;;109.88;68.35;;;76.80;2227.20;;;;;;4898148;29;20131;-83
2022/02/11 07:25:43;;;;;;;101.70;63.25;;;76.80;2227.20;;;;;;4914528;29;20111;-82
2022/02/11 07:28:09;;;;;;;82.80;54.38;;;76.90;2227.20;;;;;;4898428;29;20033;-84
2022/02/11 07:30:35;;;;;;;84.80;53.10;;;77.00;2227.20;;;;;;4914416;29;20040;-84
2022/02/11 07:33:01;;;;;;;266.05;141.05;;;77.00;2227.20;;;;;;4898672;29;20032;-83
2022/02/11 07:35:28;;;;;;;372.83;213.13;;;77.10;2227.20;;;;;;4916237;29;20040;-81
2022/02/11 07:37:54;;;;;;;137.00;81.35;;;77.10;2227.20;;;;;;4909992;29;20063;-83
2022/02/11 07:40:20;;;;;;;96.45;62.00;;;77.10;2227.20;;;;;;4901564;29;20039;-83
2022/02/11 07:42:47;;;;;;;164.80;110.22;;;77.10;2227.20;;;;;;4898540;29;20123;-84
2022/02/11 07:45:14;;;;;;;84.82;56.95;;;77.20;2227.20;;;;;;4898356;29;20032;-84
2022/02/11 07:47:40;;;;;;;80.75;52.83;;;77.20;2227.20;;;;;;4898244;29;20029;-83
2022/02/11 07:50:07;;;;;;;91.05;56.83;;;77.30;2227.20;;;;;;4897730;29;20039;-83
2022/02/11 07:52:34;;;;;;;84.65;52.80;;;77.40;2227.20;;;;;;4898325;29;20460;-83
2022/02/11 07:55:00;;;;;;;89.07;49.88;;;77.50;2227.20;;;;;;4898139;29;20032;-80
2022/02/11 07:57:26;;;;;;;83.38;50.03;;;77.60;2227.20;;;;;;4897754;29;20136;-83
2022/02/11 07:59:52;;;;;;;87.57;49.78;;;77.60;2227.20;;;;;;4898083;29;20115;-80
2022/02/11 08:02:18;;;;;;;83.43;56.28;;;77.70;2227.20;;;;;;4898194;29;20123;-79
2022/02/11 08:04:44;;;;;;;66.30;45.90;;;77.70;2227.20;;;;;;4897681;29;20068;-82
2022/02/11 08:07:10;;;;;;;72.80;43.85;;;77.70;2227.20;;;;;;4897895;29;20443;-81
2022/02/11 08:09:36;;;;;;;84.82;52.95;;;102.40;2227.20;;;;;;4898050;29;20033;-81
2022/02/11 08:12:02;;;;;;;118.07;70.82;;;102.50;2227.20;;;;;;4897721;29;20396;-81
2022/02/11 08:14:30;;;;;;;86.65;55.67;;;102.60;2227.20;;;;;;4899163;29;20041;-81
2022/02/11 08:16:56;;;;;;;84.22;57.47;;;102.70;2227.20;;;;;;4897474;29;20032;-82
2022/02/11 08:19:22;;;;;;;68.75;47.17;;;102.80;2227.20;;;;;;4897642;29;20032;-82
2022/02/11 08:21:50;;;;;;;72.93;46.20;;;102.80;2227.20;;;;;;4897759;29;20055;-81
2022/02/11 08:24:16;;;;;;;61.40;41.42;;;102.90;2227.20;;;;;;4897497;29;20032;-84
2022/02/11 08:26:43;;;;;;;54.67;36.83;;;103.00;2227.20;;;;;;4897688;29;20177;-83
2022/02/11 08:29:09;;;;;;;60.03;40.38;;;103.10;2227.20;;;;;;4897816;29;20036;-82
2022/02/11 08:31:36;;;;;;;59.00;39.75;;;103.20;2227.20;;;;;;4897489;29;20084;-82
2022/02/11 08:34:02;;;;;;;55.95;39.95;;;103.30;2227.20;;;;;;4897523;29;20080;-83
2022/02/11 08:36:28;;;;;;;55.40;35.78;;;128.10;2252.80;;;;;;4913118;29;20393;-80
2022/02/11 08:38:55;;;;;;;52.35;36.25;;;128.20;2252.80;;;;;;4898533;29;20113;-85
2022/02/11 08:41:22;;;;;;;58.47;36.72;;;128.30;2252.80;;;;;;4897520;29;20516;-82
2022/02/11 08:43:48;;;;;;;50.42;37.00;;;128.40;2252.80;;;;;;4897459;29;20063;-84
2022/02/11 08:46:14;;;;;;;71.85;45.22;;;128.60;2252.80;;;;;;4897198;29;20452;-84
2022/02/11 08:48:40;;;;;;;104.30;67.20;;;128.80;2252.80;;;;;;4897468;29;20457;-82
2022/02/11 08:51:06;;;;;;;82.72;55.17;;;128.90;2252.80;;;;;;4897330;29;20123;-80
2022/02/11 08:53:34;;;;;;;78.75;53.05;;;153.70;2252.80;;;;;;4912745;29;20032;-80
2022/02/11 08:56:03;;;;;;;74.00;51.00;;;153.80;2252.80;;;;;;4896956;29;20060;-76
2022/02/11 08:58:28;;;;;;;75.63;50.05;;;153.90;2252.80;;;;;;4913151;29;20425;-76
2022/02/11 09:00:54;;;;;;;75.70;51.53;;;154.10;2252.80;;;;;;4896925;29;20029;-78
2022/02/11 09:03:20;;;;;;;69.30;44.15;;;154.20;2252.80;;;;;;4898565;29;20025;-78
2022/02/11 09:05:46;;;;;;;69.20;45.72;;;154.40;2252.80;;;;;;4897149;29;20033;-79
2022/02/11 09:08:12;;;;;;;77.85;49.00;;;154.50;2252.80;;;;;;4897111;29;20035;-77
2022/02/11 09:10:38;;;;;;;87.05;57.00;;;179.30;2252.80;;;;;;4897108;29;20032;-76
2022/02/11 09:13:05;;;;;;;81.63;52.90;;;179.40;2252.80;;;;;;4897909;29;20039;-76
2022/02/11 09:15:31;;;;;;;83.68;55.85;;;179.50;2252.80;;;;;;4897112;29;20032;-77
2022/02/11 09:17:57;;;;;;;81.68;51.70;;;179.70;2252.80;;;;;;4897131;29;20503;-78
2022/02/11 09:20:24;;;;;;;93.07;56.97;;;179.90;2252.80;;;;;;4896815;29;20139;-77
2022/02/11 09:22:51;;;;;;;74.45;50.08;;;180.00;2252.80;;;;;;4897125;29;20024;-79
2022/02/11 09:25:18;;;;;;;68.03;44.13;;;180.10;2252.80;;;;;;4897183;29;20067;-78
2022/02/11 09:31:07;;;;;;;73.03;52.90;;;205.00;2252.80;;;;;;4897841;29;20036;-76
2022/02/11 09:33:36;;;;;;;72.68;43.53;;;205.10;2252.80;;;;;;4896810;29;20111;-80
2022/02/11 09:36:02;;;;;;;72.05;49.72;;;205.20;2252.80;;;;;;4896323;29;20123;-79
2022/02/11 09:38:27;;;;;;;40.03;29.42;;;205.30;2252.80;;;;;;4896721;29;20121;-77
2022/02/11 09:40:53;;;;;;;39.85;27.77;;;205.50;2252.80;;;;;;4896331;29;20036;-77
2022/02/11 09:43:25;;;;;;;41.78;29.33;;;205.60;2252.80;;;;;;4912619;29;20362;-80
2022/02/11 09:45:53;;;;;;;48.38;31.42;;;230.40;2252.80;;;;;;4898265;29;20064;-81
2022/02/11 09:48:19;;;;;;;44.25;34.78;;;230.60;2252.80;;;;;;4899853;29;20033;-78
2022/02/11 09:50:45;;;;;;;54.95;39.72;;;230.70;2252.80;;;;;;4901412;29;20606;-78
2022/02/11 09:53:13;;;;;;;56.22;40.00;;;230.80;2252.80;;;;;;4899976;29;20037;-78
2022/02/11 09:55:43;;;;;;;55.67;35.50;;;231.00;2252.80;;;;;;4899538;29;20033;-78
2022/02/11 09:58:18;;;;;;;36.55;26.98;;;231.10;2252.80;;;;;;4915735;29;20045;-78
2022/02/11 10:00:48;;;;;;;52.90;37.58;;;231.20;2252.80;;;;;;4899887;29;20468;-78
2022/02/11 10:06:30;;;;;;;42.97;27.67;;;256.10;2252.80;;;;;;4917334;29;20136;-76
2022/02/11 10:09:00;;;;;;;52.58;36.40;;;256.00;2252.80;;;;;;4917576;29;20031;-77
2022/02/11 10:11:48;;;;;;;50.97;38.72;;;256.20;2252.80;;;;;;4912960;29;20028;-77
2022/02/11 10:14:43;;;;;;;67.18;43.65;;;256.40;2252.80;;;;;;4911343;29;20056;-77
2022/02/11 10:17:19;;;;;;;52.17;30.88;;;256.60;2252.80;;;;;;4898208;29;20477;-78
2022/02/11 10:19:54;;;;;;;39.72;28.52;;;256.40;2252.80;;;;;;4898383;29;20040;-77
2022/02/11 10:22:34;;;;;;;32.90;22.98;;;256.60;2252.80;;;;;;4898656;29;20540;-75
2022/02/11 10:24:59;;;;;;;33.60;21.83;;;256.50;2252.80;;;;;;4882749;29;20124;-77
2022/02/11 10:27:50;;;;;;;;;;;;;;;;;;;;;
2022/02/11 10:30:46;;;;;;;43.35;28.75;;;256.70;2252.80;;;;;;4898938;29;20028;-78
2022/02/11 11:20:22;;;;;;;32.00;21.80;;;332.80;2329.60;;;;;;4918184;29;20491;-76
2022/02/11 11:54:08;;;;;;;36.85;20.25;;;384.60;2048.00;;;;;;4160434;27;20056;-79
2022/02/11 11:56:48;;;;;;;;;;;;;;;;;;;;;
2022/02/11 12:07:26;;;;;;;29.40;18.70;;;410.50;1996.80;;;;;;4822765;29;20062;-78
2022/02/11 12:10:10;;;;;;;25.02;17.60;;;435.30;1945.60;;;;;;4822381;29;20565;-77
2022/02/11 12:13:08;;;;;;;33.88;22.20;;;435.60;1920.00;;;;;;4822828;29;20141;-77
2022/02/11 12:16:32;;;;;;;;;;;;;;;;;;;;;
2022/02/11 12:19:12;;;;;;;25.60;18.20;;;436.10;1894.40;;;;;;4835393;29;20029;-78
2022/02/11 12:21:46;;;;;;;37.03;25.00;;;460.80;1843.20;;;;;;4843869;29;20461;-77
2022/02/11 12:27:49;;;;;;;32.97;23.13;;;461.20;1817.60;;;;;;4859253;29;20028;-76
2022/02/11 12:30:27;;;;;;;33.80;23.07;;;461.40;1766.40;;;;;;4865241;29;20024;-77
2022/02/11 12:33:27;;;;;;;34.22;22.88;;;461.70;1792.00;;;;;;4891350;29;20370;-77
2022/02/11 12:36:31;;;;;;;;;;;;;;;;;;;;;
2022/02/11 12:39:25;;;;;;;24.60;16.27;;;461.70;1740.80;;;;;;4898418;29;20027;-77
2022/02/11 12:42:40;;;;;;;26.83;18.73;;;486.40;1740.80;;;;;;4881438;29;20036;-78
2022/02/11 12:52:53;;;;;;;26.00;18.17;;;486.80;1664.00;;;;;;4785760;29;20031;-78
2022/02/11 12:55:22;;;;;;;25.70;15.73;;;486.60;1664.00;;;;;;4803878;29;20035;-77
2022/02/11 12:57:56;;;;;;;25.65;17.15;;;486.80;1689.60;;;;;;4853720;29;20044;-77
2022/02/11 13:00:28;;;;;;;21.73;15.40;;;487.10;1715.20;;;;;;4881427;29;20020;-76
2022/02/11 13:03:12;;;;;;;23.90;14.18;;;487.10;1664.00;;;;;;4881690;29;20035;-73
2022/02/11 13:05:42;;;;;;;36.38;17.35;;;487.30;1664.00;;;;;;4880431;29;20048;-76
2022/02/11 13:08:08;;;;;;;17.33;13.63;;;487.30;1638.40;;;;;;4881544;29;20112;-75
2022/02/11 13:10:39;;;;;;;28.58;19.88;;;486.90;1664.00;;;;;;4881621;29;20127;-75
2022/02/11 13:13:20;;;;;;;20.60;15.77;;;487.30;1664.00;;;;;;4881198;29;20029;-76
2022/02/11 13:19:13;;;;;;;21.52;12.82;;;512.00;1638.40;;;;;;4897997;29;20039;-78
2022/02/11 13:21:54;;;;;;;34.72;22.20;;;487.00;1612.80;;;;;;4884314;29;20029;-76
2022/02/11 13:25:05;;;;;;;21.27;15.20;;;487.20;1664.00;;;;;;4884742;29;20031;-78
2022/02/11 13:31:09;;;;;;;27.20;16.73;;;486.80;1664.00;;;;;;4901754;29;20047;-78
2022/02/11 13:33:36;;;;;;;28.85;18.80;;;486.80;1664.00;;;;;;4884870;29;20117;-77
2022/02/11 13:36:14;;;;;;;32.58;19.50;;;486.80;1664.00;;;;;;4903375;29;20032;-78
2022/02/11 13:38:52;;;;;;;27.73;19.40;;;486.60;1664.00;;;;;;4903442;29;20017;-78
2022/02/11 13:41:26;;;;;;;28.40;17.80;;;486.50;1638.40;;;;;;4903500;29;20023;-76
2022/02/11 13:51:24;;;;;;;;;;;;;;;;;;;;;
2022/02/11 13:54:16;;;;;;;22.35;13.57;;;487.20;1612.80;;;;;;4918006;29;20055;-77
2022/02/11 13:56:45;;;;;;;26.83;17.38;;;487.20;1587.20;;;;;;4934769;29;20024;-76
2022/02/11 13:59:35;;;;;;;29.10;19.75;;;512.00;1587.20;;;;;;4897662;29;20024;-76
2022/02/11 14:02:12;;;;;;;25.55;17.70;;;512.20;1587.20;;;;;;4923685;29;20115;-76
2022/02/11 14:04:50;;;;;;;31.27;17.10;;;512.30;1561.60;;;;;;4900055;29;20079;-77
2022/02/11 14:07:18;;;;;;;19.42;11.63;;;512.30;1561.60;;;;;;4899884;29;20028;-76
2022/02/11 14:09:47;;;;;;;35.25;20.05;;;512.10;1561.60;;;;;;4883186;29;20031;-78
2022/02/11 14:12:12;;;;;;;35.55;21.73;;;512.10;1561.60;;;;;;4883144;29;20021;-75
2022/02/11 14:14:56;;;;;;;40.38;24.90;;;512.30;1561.60;;;;;;4882636;29;20024;-76
2022/02/11 14:17:22;;;;;;;28.60;19.83;;;512.20;1561.60;;;;;;4902188;29;20103;-76
2022/02/11 14:19:49;;;;;;;32.03;25.08;;;512.10;1587.20;;;;;;4899305;29;20016;-77
2022/02/11 14:22:16;;;;;;;50.08;35.10;;;486.80;1587.20;;;;;;4901650;29;20040;-77
2022/02/11 14:24:42;;;;;;;57.75;39.80;;;486.70;1638.40;;;;;;4901798;29;20039;-76
2022/02/11 14:27:08;;;;;;;55.40;38.85;;;486.50;1664.00;;;;;;4918567;29;20032;-76
2022/02/11 14:29:34;;;;;;;57.88;40.78;;;461.70;1664.00;;;;;;4899627;29;20032;-77
2022/02/11 14:32:00;;;;;;;42.67;32.40;;;461.30;1689.60;;;;;;4900593;29;20024;-77
2022/02/11 14:34:26;;;;;;;47.05;34.75;;;460.90;1689.60;;;;;;4900794;29;20024;-76
2022/02/11 14:36:52;;;;;;;60.78;44.33;;;436.00;1689.60;;;;;;4900506;29;20025;-77
2022/02/11 14:39:19;;;;;;;56.25;35.92;;;435.70;1740.80;;;;;;4899547;29;20036;-76
2022/02/11 14:41:47;;;;;;;75.07;51.40;;;435.50;1740.80;;;;;;4898003;29;20028;-77
2022/02/11 14:44:20;;;;;;;63.30;45.50;;;435.20;1766.40;;;;;;4905187;29;20126;-78
2022/02/11 14:46:48;;;;;;;62.88;42.10;;;410.40;1792.00;;;;;;4900667;29;20191;-77
2022/02/11 14:49:18;;;;;;;55.50;35.35;;;410.20;1817.60;;;;;;4899861;29;20115;-76
2022/02/11 14:51:53;;;;;;;47.88;34.38;;;410.00;1817.60;;;;;;4901236;29;20163;-78
2022/02/11 14:54:20;;;;;;;61.38;42.70;;;409.90;1817.60;;;;;;4900879;29;20044;-80
2022/02/11 14:56:48;;;;;;;52.50;35.50;;;409.60;1843.20;;;;;;4917594;29;20028;-80
2022/02/11 14:59:15;;;;;;;56.55;37.10;;;409.70;1843.20;;;;;;4901098;29;20429;-80
2022/02/11 15:01:41;;;;;;;70.55;48.88;;;409.70;1868.80;;;;;;4900930;29;20025;-80
2022/02/11 15:04:08;;;;;;;65.25;46.38;;;384.90;1817.60;;;;;;4900696;29;20028;-78
2022/02/11 15:06:35;;;;;;;87.00;60.83;;;409.60;1868.80;;;;;;4917375;29;20036;-78
2022/02/11 15:09:01;;;;;;;77.70;51.58;;;384.70;1843.20;;;;;;4901128;29;20558;-81
2022/02/11 15:11:28;;;;;;;74.18;52.38;;;384.70;1868.80;;;;;;4900711;29;20423;-79
2022/02/11 15:13:54;;;;;;;73.35;51.35;;;384.50;1894.40;;;;;;4900643;29;20079;-80
2022/02/11 15:16:20;;;;;;;89.90;63.03;;;384.40;1920.00;;;;;;4900821;29;20084;-80
2022/02/11 15:18:47;;;;;;;80.25;58.90;;;384.20;1920.00;;;;;;4900391;29;20031;-79
2022/02/11 15:21:14;;;;;;;91.85;64.00;;;384.10;1920.00;;;;;;4900562;29;20369;-78
2022/02/11 15:23:40;;;;;;;87.68;58.90;;;384.50;1945.60;;;;;;4900282;29;20028;-79
2022/02/11 15:26:08;;;;;;;101.45;71.18;;;359.30;1971.20;;;;;;4900419;29;20087;-79
2022/02/11 15:28:37;;;;;;;103.20;71.10;;;359.20;1971.20;;;;;;4899731;29;20107;-82
2022/02/11 15:31:04;;;;;;;113.80;77.82;;;359.00;1971.20;;;;;;4900329;29;20031;-79
2022/02/11 15:33:47;;;;;;;100.47;74.65;;;358.90;1996.80;;;;;;4900721;29;20479;-81
2022/02/11 17:13:50;;;;;;;100.43;64.22;;;256.60;2252.80;;;;;;4918067;29;20051;-80
2022/02/11 17:20:13;;;;;;;77.43;55.22;;;256.50;2252.80;;;;;;4920132;29;20477;-83
2022/02/11 17:47:50;;;;;;;;;;;;;;;;;;;;;
2022/02/11 17:58:16;;;;;;;306.13;208.18;;;230.90;2252.80;;;;;;4788006;30;20468;-81
2022/02/11 18:05:19;;;;;;;483.30;285.20;;;230.80;2252.80;;;;;;4717985;30;20572;-82
2022/02/11 18:09:03;;;;;;;;;;;;;;;;;;;;;
2022/02/11 18:12:46;;;;;;;;;;;;;;;;;;;;;
2022/02/11 18:25:17;;;;;;;251.77;152.52;;;205.60;2252.80;;;;;;4712482;30;19971;-83
2022/02/11 18:27:43;;;;;;;287.65;172.18;;;205.60;2252.80;;;;;;4742765;30;20030;-79
2022/02/11 18:30:36;;;;;;;350.40;223.88;;;205.50;2252.80;;;;;;4791201;29;20032;-81
2022/02/11 18:33:02;;;;;;;355.88;230.82;;;230.50;2252.80;;;;;;4777265;30;20035;-81
2022/02/11 18:35:31;;;;;;;403.65;257.50;;;205.40;2252.80;;;;;;4773443;30;20031;-81
2022/02/11 18:38:00;;;;;;;342.83;214.02;;;205.30;2252.80;;;;;;4816440;29;20032;-82
2022/02/11 18:40:38;;;;;;;383.88;240.90;;;205.40;2252.80;;;;;;4883889;29;20027;-80
2022/02/11 18:43:07;;;;;;;323.48;201.13;;;205.20;2252.80;;;;;;4881584;29;20021;-80
2022/02/11 18:46:02;;;;;;;329.83;207.80;;;205.30;2252.80;;;;;;4899157;29;20035;-80
2022/02/11 18:49:16;;;;;;;;;;;;;;;;;;;;;
2022/02/11 18:52:03;;;;;;;334.00;211.07;;;205.20;2252.80;;;;;;4897053;29;19909;-81
2022/02/11 18:54:33;;;;;;;362.10;242.07;;;205.10;2252.80;;;;;;4882819;29;20052;-82
2022/02/11 18:57:05;;;;;;;342.52;224.25;;;205.10;2252.80;;;;;;4843772;29;20043;-82
2022/02/11 19:02:50;;;;;;;356.90;244.90;;;205.00;2252.80;;;;;;4860112;29;20041;-85
2022/02/11 19:05:16;;;;;;;331.98;210.80;;;205.00;2252.80;;;;;;4844403;29;20081;-82
2022/02/11 19:08:00;;;;;;;314.15;209.65;;;204.90;2252.80;;;;;;4844201;29;20104;-79
2022/02/11 19:10:27;;;;;;;342.67;220.63;;;204.90;2252.80;;;;;;4842419;29;20042;-78
2022/02/11 19:12:53;;;;;;;433.15;276.05;;;204.90;2252.80;;;;;;4843390;29;20045;-80
2022/02/11 19:15:20;;;;;;;478.20;309.77;;;204.90;2252.80;;;;;;4844007;29;20086;-81
2022/02/11 19:17:46;;;;;;;450.30;296.98;;;204.90;2252.80;;;;;;4857784;29;20048;-81
2022/02/11 19:20:15;;;;;;;460.80;302.38;;;204.80;2252.80;;;;;;4861786;29;20033;-81
2022/02/11 19:22:45;;;;;;;385.02;251.50;;;204.80;2252.80;;;;;;4847067;29;20133;-83
2022/02/11 19:25:19;;;;;;;402.73;261.55;;;180.10;2252.80;;;;;;4862495;29;20023;-80
2022/02/11 19:27:46;;;;;;;337.70;220.60;;;180.10;2252.80;;;;;;4888613;29;20469;-81
2022/02/11 19:30:12;;;;;;;180.82;121.53;;;180.10;2252.80;;;;;;4900576;29;20028;-82
2022/02/11 19:32:39;;;;;;;121.53;82.82;;;180.10;2252.80;;;;;;4884905;29;20035;-80
2022/02/11 19:35:09;;;;;;;215.50;133.02;;;180.10;2252.80;;;;;;4885280;29;20423;-81
2022/02/11 19:37:36;;;;;;;231.48;128.82;;;180.00;2252.80;;;;;;4900806;29;20078;-79
2022/02/11 19:40:05;;;;;;;305.75;160.13;;;179.90;2252.80;;;;;;4900674;29;20058;-78
2022/02/11 19:42:31;;;;;;;286.65;163.18;;;179.80;2252.80;;;;;;4900966;29;20036;-80
2022/02/11 19:44:57;;;;;;;143.88;86.30;;;179.70;2252.80;;;;;;4901274;29;20487;-81
2022/02/11 19:47:24;;;;;;;148.32;91.03;;;179.80;2252.80;;;;;;4900300;29;20484;-83
2022/02/11 19:49:51;;;;;;;185.27;115.90;;;179.80;2252.80;;;;;;4899363;29;20055;-78
2022/02/11 19:52:19;;;;;;;190.90;125.88;;;179.70;2252.80;;;;;;4900529;29;20502;-81
2022/02/11 19:54:47;;;;;;;163.77;100.43;;;179.60;2252.80;;;;;;4899636;29;20479;-81
2022/02/11 19:57:18;;;;;;;89.28;57.28;;;179.50;2252.80;;;;;;4938941;29;20335;-82
2022/02/11 19:59:45;;;;;;;113.38;74.50;;;179.40;2252.80;;;;;;4899990;29;20027;-81
2022/02/11 20:02:15;;;;;;;110.57;70.47;;;179.30;2252.80;;;;;;4900333;29;20016;-82
2022/02/11 20:04:55;;;;;;;151.13;95.20;;;179.40;2252.80;;;;;;4899826;29;20020;-79
2022/02/11 20:08:17;;;;;;;192.18;117.93;;;179.20;2252.80;;;;;;4901177;29;20033;-83
2022/02/11 20:11:09;;;;;;;281.48;169.68;;;179.40;2252.80;;;;;;4902391;29;20032;-81
2022/02/11 20:14:03;;;;;;;293.45;187.63;;;179.30;2252.80;;;;;;4870711;29;20028;-81
2022/02/11 20:16:57;;;;;;;308.50;202.15;;;179.20;2252.80;;;;;;4916697;29;20491;-81
2022/02/11 20:19:30;;;;;;;281.90;182.57;;;179.20;2252.80;;;;;;4900233;29;20360;-81
2022/02/11 20:21:57;;;;;;;283.58;187.98;;;154.50;2252.80;;;;;;4917041;29;20024;-82
2022/02/11 20:24:28;;;;;;;281.35;199.77;;;128.90;2252.80;;;;;;4900103;29;20079;-82
2022/02/11 20:26:55;;;;;;;357.75;248.93;;;179.20;2252.80;;;;;;4920125;29;20034;-82
2022/02/11 20:29:21;;;;;;;254.73;176.88;;;154.50;2252.80;;;;;;4950836;28;20135;-81
2022/02/11 20:31:56;;;;;;;183.55;125.00;;;179.20;2252.80;;;;;;4951462;29;20032;-79
2022/02/11 20:34:25;;;;;;;117.32;80.10;;;154.50;2252.80;;;;;;4950484;29;20027;-80
2022/02/11 20:36:55;;;;;;;111.95;72.70;;;179.20;2252.80;;;;;;4935721;29;20035;-82
2022/02/11 20:39:23;;;;;;;86.13;53.40;;;154.50;2252.80;;;;;;4917841;29;20123;-80
2022/02/11 20:41:49;;;;;;;69.88;48.65;;;154.40;2252.80;;;;;;4900484;29;20020;-79
2022/02/11 20:44:19;;;;;;;79.38;51.67;;;154.30;2252.80;;;;;;4900942;29;20118;-81